createdAt,value
2023-02-01T00:01:28.139Z,88.40
2023-02-01T00:04:00.559Z,79.30
2023-02-01T00:06:33.077Z,91.50
2023-02-01T00:09:05.964Z,89.20
2023-02-01T00:11:38.454Z,90.40
2023-02-01T00:14:11.166Z,93.00
2023-02-01T00:16:43.784Z,83.30
2023-02-01T00:19:17.587Z,92.20
2023-02-01T00:21:49.798Z,87.60
2023-02-01T00:24:22.155Z,83.60
2023-02-01T00:26:54.463Z,94.20
2023-02-01T00:29:27.232Z,90.80
2023-02-01T00:31:59.709Z,101.50
2023-02-01T00:34:32.172Z,89.70
2023-02-01T00:37:04.542Z,84.80
2023-02-01T00:39:36.905Z,94.90
2023-02-01T00:42:09.388Z,89.30
2023-02-01T00:44:41.749Z,94.50
2023-02-01T00:47:14.207Z,99.80
2023-02-01T00:49:46.547Z,92.70
2023-02-01T00:52:18.905Z,92.10
2023-02-01T00:54:51.189Z,88.90
2023-02-01T00:57:23.440Z,84.00
2023-02-01T00:59:55.763Z,90.90
2023-02-01T01:02:30.121Z,90.80
2023-02-01T01:05:02.570Z,81.20
2023-02-01T01:07:34.938Z,84.60
2023-02-01T01:10:08.387Z,93.30
2023-02-01T01:12:40.638Z,87.70
2023-02-01T01:15:14.121Z,91.30
2023-02-01T01:17:46.667Z,92.60
2023-02-01T01:20:22.975Z,94.90
2023-02-01T01:22:55.540Z,85.80
2023-02-01T01:25:27.926Z,86.00
2023-02-01T01:28:00.075Z,74.50
2023-02-01T01:30:32.419Z,87.40
2023-02-01T01:33:04.956Z,68.80
2023-02-01T01:35:37.939Z,84.00
2023-02-01T01:38:10.874Z,91.20
2023-02-01T01:40:46.665Z,80.40
2023-02-01T01:43:23.528Z,87.00
2023-02-01T01:45:56.051Z,86.20
2023-02-01T01:48:32.292Z,81.40
2023-02-01T01:51:10.014Z,87.20
2023-02-01T01:53:50.133Z,74.70
2023-02-01T01:56:22.480Z,84.00
2023-02-01T01:58:56.958Z,85.20
2023-02-01T02:01:30.165Z,78.20
2023-02-01T02:04:03.515Z,80.50
2023-02-01T02:06:49.084Z,81.00
2023-02-01T02:09:21.630Z,74.50
2023-02-01T02:11:53.924Z,77.20
2023-02-01T02:14:27.955Z,78.10
2023-02-01T02:17:22.915Z,61.80
2023-02-01T02:20:28.249Z,62.60
2023-02-01T02:23:24.402Z,62.40
2023-02-01T02:26:24.811Z,51.70
2023-02-01T02:29:26.762Z,68.40
2023-02-01T02:32:19.950Z,68.60
2023-02-01T02:34:56.376Z,68.70
2023-02-01T02:37:41.060Z,72.80
2023-02-01T02:40:23.251Z,78.90
2023-02-01T02:43:28.967Z,69.50
2023-02-01T02:46:30.102Z,73.10
2023-02-01T02:49:13.653Z,70.70
2023-02-01T02:52:08.490Z,70.80
2023-02-01T02:54:48.761Z,69.60
2023-02-01T02:57:42.571Z,68.00
2023-02-01T03:00:37.027Z,66.50
2023-02-01T03:03:27.227Z,62.20
2023-02-01T03:06:00.042Z,70.90
2023-02-01T03:08:33.593Z,62.60
2023-02-01T03:11:08.536Z,68.70
2023-02-01T03:13:48.045Z,60.20
2023-02-01T03:16:27.439Z,57.80
2023-02-01T03:19:05.022Z,44.30
2023-02-01T03:21:40.920Z,54.70
2023-02-01T03:24:19.493Z,57.30
2023-02-01T03:26:56.576Z,46.70
2023-02-01T03:29:38.266Z,43.40
2023-02-01T03:32:11.644Z,48.30
2023-02-01T03:34:44.764Z,49.00
2023-02-01T03:37:24.059Z,46.90
2023-02-01T03:40:03.175Z,44.90
2023-02-01T03:42:41.296Z,45.20
2023-02-01T03:45:21.100Z,39.90
2023-02-01T03:47:57.953Z,49.50
2023-02-01T03:50:32.491Z,46.70
2023-02-01T03:53:09.476Z,55.40
2023-02-01T03:55:43.447Z,53.90
2023-02-01T03:58:17.544Z,46.70
2023-02-01T04:00:55.569Z,40.70
2023-02-01T04:03:29.150Z,36.70
2023-02-01T04:06:01.540Z,46.00
2023-02-01T04:08:33.791Z,46.70
2023-02-01T04:11:06.015Z,41.00
2023-02-01T04:13:38.378Z,47.10
2023-02-01T04:16:10.820Z,39.10
2023-02-01T04:18:43.314Z,39.90
2023-02-01T04:21:15.622Z,39.60
2023-02-01T04:23:47.881Z,40.10
2023-02-01T04:26:20.948Z,38.60
2023-02-01T04:28:53.873Z,41.00
2023-02-01T04:31:28.404Z,45.20
2023-02-01T04:34:01.548Z,40.10
2023-02-01T04:36:33.845Z,37.10
2023-02-01T04:39:06.268Z,35.30
2023-02-01T04:41:38.498Z,37.00
2023-02-01T04:44:15.641Z,38.20
2023-02-01T04:46:48.888Z,35.40
2023-02-01T04:49:22.413Z,39.50
2023-02-01T04:51:54.809Z,35.20
2023-02-01T04:54:27.513Z,35.60
2023-02-01T04:56:59.806Z,40.30
2023-02-01T04:59:32.384Z,35.20
2023-02-01T05:02:04.671Z,34.60
2023-02-01T05:04:37.065Z,36.60
2023-02-01T05:07:09.474Z,34.90
2023-02-01T05:09:41.844Z,30.80
2023-02-01T05:12:31.645Z,29.80
2023-02-01T05:15:04.197Z,30.00
2023-02-01T05:17:36.554Z,26.90
2023-02-01T05:20:11.116Z,34.00
2023-02-01T05:22:44.946Z,25.00
2023-02-01T05:25:17.615Z,26.40
2023-02-01T05:27:49.966Z,31.20
2023-02-01T05:30:22.727Z,28.70
2023-02-01T05:32:56.086Z,23.60
2023-02-01T05:35:28.470Z,25.30
2023-02-01T05:38:00.913Z,22.80
2023-02-01T05:40:33.360Z,20.60
2023-02-01T05:43:05.745Z,21.30
2023-02-01T05:45:37.944Z,22.70
2023-02-01T05:48:10.248Z,20.70
2023-02-01T05:50:43.474Z,22.70
2023-02-01T05:53:16.221Z,21.70
2023-02-01T05:55:48.569Z,24.60
2023-02-01T05:58:20.901Z,23.50
2023-02-01T06:00:53.176Z,24.10
2023-02-01T06:03:25.641Z,27.00
2023-02-01T06:05:58.005Z,23.50
2023-02-01T06:08:30.416Z,24.20
2023-02-01T06:11:05.383Z,21.50
2023-02-01T06:13:39.804Z,22.60
2023-02-01T06:16:12.331Z,20.60
2023-02-01T06:18:44.725Z,20.40
2023-02-01T06:21:25.003Z,21.40
2023-02-01T06:23:58.881Z,20.80
2023-02-01T06:26:31.410Z,19.80
2023-02-01T06:29:03.889Z,21.80
2023-02-01T06:31:40.987Z,24.60
2023-02-01T06:34:13.271Z,23.30
2023-02-01T06:36:45.466Z,25.60
2023-02-01T06:39:18.275Z,18.60
2023-02-01T06:41:52.116Z,17.50
2023-02-01T06:44:24.522Z,21.70
2023-02-01T06:46:57.104Z,22.90
2023-02-01T06:49:29.545Z,22.60
2023-02-01T06:52:01.950Z,21.20
2023-02-01T06:54:35.372Z,19.60
2023-02-01T06:57:08.044Z,22.60
2023-02-01T06:59:40.393Z,23.40
2023-02-01T07:02:14.785Z,19.60
2023-02-01T07:04:47.158Z,16.30
2023-02-01T07:07:20.843Z,21.60
2023-02-01T07:09:53.128Z,18.60
2023-02-01T07:12:25.739Z,21.20
2023-02-01T07:14:58.537Z,20.30
2023-02-01T07:17:31.104Z,23.40
2023-02-01T07:20:03.809Z,20.80
2023-02-01T07:22:36.215Z,19.60
2023-02-01T07:25:10.352Z,22.50
2023-02-01T07:27:43.993Z,19.50
2023-02-01T07:30:17.027Z,22.90
2023-02-01T07:32:49.307Z,21.60
2023-02-01T07:35:21.611Z,24.20
2023-02-01T07:37:53.935Z,26.90
2023-02-01T07:40:29.861Z,23.60
2023-02-01T07:45:35.240Z,24.10
2023-02-01T07:50:40.381Z,21.10
2023-02-01T07:53:12.884Z,20.10
2023-02-01T07:55:45.306Z,21.10
2023-02-01T07:58:17.720Z,21.60
2023-02-01T08:01:07.544Z,21.70
2023-02-01T08:03:40.304Z,19.70
2023-02-01T08:06:12.910Z,21.80
2023-02-01T08:08:47.825Z,21.70
2023-02-01T08:11:21.520Z,18.80
2023-02-01T08:13:54.634Z,21.90
2023-02-01T08:16:27.620Z,19.00
2023-02-01T08:19:00.177Z,18.80
2023-02-01T08:21:37.875Z,21.40
2023-02-01T08:24:12.931Z,21.10
2023-02-01T08:26:45.494Z,23.80
2023-02-01T08:29:17.818Z,21.50
2023-02-01T08:31:50.086Z,18.80
2023-02-01T08:34:22.664Z,22.20
2023-02-01T08:36:59.700Z,23.60
2023-02-01T08:39:32.183Z,22.90
2023-02-01T08:42:22.093Z,21.30
2023-02-01T08:44:54.428Z,76.70
2023-02-01T08:47:26.893Z,157.50
2023-02-01T08:49:59.359Z,45.80
2023-02-01T08:52:31.644Z,25.70
2023-02-01T08:55:03.995Z,22.20
2023-02-01T08:57:36.654Z,20.50
2023-02-01T09:00:13.461Z,20.70
2023-02-01T09:02:46.576Z,23.80
2023-02-01T09:05:23.305Z,15.70
2023-02-01T09:07:55.894Z,20.10
2023-02-01T09:10:35.263Z,17.10
2023-02-01T09:13:08.947Z,17.90
2023-02-01T09:15:41.425Z,15.50
2023-02-01T09:18:13.899Z,16.30
2023-02-01T09:20:47.531Z,16.40
2023-02-01T09:23:21.435Z,15.80
2023-02-01T09:25:53.687Z,16.90
2023-02-01T09:28:26.611Z,19.70
2023-02-01T09:31:01.869Z,17.40
2023-02-01T09:33:34.424Z,13.20
2023-02-01T09:36:08.396Z,12.70
2023-02-01T09:38:44.565Z,17.00
2023-02-01T09:41:39.558Z,14.90
2023-02-01T09:44:25.730Z,15.50
2023-02-01T09:47:01.386Z,14.20
2023-02-01T09:49:38.224Z,14.80
2023-02-01T09:52:15.141Z,15.50
2023-02-01T09:54:54.590Z,11.40
2023-02-01T09:57:30.614Z,14.10
2023-02-01T10:00:10.002Z,14.50
2023-02-01T10:02:44.677Z,15.70
2023-02-01T10:05:26.824Z,15.10
2023-02-01T10:08:07.600Z,13.00
2023-02-01T10:10:46.087Z,16.20
2023-02-01T10:13:51.916Z,13.00
2023-02-01T10:16:39.485Z,19.30
2023-02-01T10:19:39.342Z,15.60
2023-02-01T10:22:18.350Z,18.60
2023-02-01T10:24:58.498Z,12.10
2023-02-01T10:27:36.636Z,15.30
2023-02-01T10:30:23.730Z,13.10
2023-02-01T10:33:03.136Z,14.30
2023-02-01T10:35:39.782Z,12.90
2023-02-01T10:38:19.575Z,15.20
2023-02-01T10:40:53.734Z,13.90
2023-02-01T10:43:26.570Z,12.20
2023-02-01T10:45:59.157Z,16.90
2023-02-01T10:48:31.436Z,16.00
2023-02-01T10:51:07.852Z,15.30
2023-02-01T10:53:50.510Z,13.80
2023-02-01T10:56:28.329Z,14.40
2023-02-01T10:59:06.671Z,12.70
2023-02-01T11:01:42.287Z,10.20
2023-02-01T11:06:48.843Z,12.40
2023-02-01T11:09:25.543Z,13.80
2023-02-01T11:12:01.062Z,9.70
2023-02-01T11:14:40.601Z,9.70
2023-02-01T11:17:27.442Z,8.80
2023-02-01T11:20:03.774Z,12.00
2023-02-01T11:22:36.157Z,44.80
2023-02-01T11:25:18.044Z,13.80
2023-02-01T11:27:55.216Z,10.20
2023-02-01T11:30:37.101Z,11.50
2023-02-01T11:33:14.798Z,10.40
2023-02-01T11:35:49.764Z,8.60
2023-02-01T11:38:31.755Z,8.70
2023-02-01T11:41:23.278Z,10.00
2023-02-01T11:43:59.501Z,13.30
2023-02-01T11:46:35.064Z,9.70
2023-02-01T11:49:22.655Z,9.00
2023-02-01T11:52:13.685Z,11.30
2023-02-01T11:55:04.695Z,9.90
2023-02-01T11:57:54.126Z,11.40
2023-02-01T12:00:43.733Z,12.40
2023-02-01T12:03:51.778Z,10.00
2023-02-01T12:06:31.833Z,12.60
2023-02-01T12:09:27.355Z,14.30
2023-02-01T12:12:10.960Z,8.80
2023-02-01T12:14:56.758Z,10.60
2023-02-01T12:18:06.662Z,28.60
2023-02-01T12:21:01.425Z,7.90
2023-02-01T12:24:08.748Z,9.90
2023-02-01T12:26:52.598Z,13.30
2023-02-01T12:29:50.385Z,8.10
2023-02-01T12:32:35.048Z,8.20
2023-02-01T12:35:42.584Z,19.40
2023-02-01T12:38:37.740Z,10.70
2023-02-01T12:41:34.656Z,9.90
2023-02-01T12:46:45.644Z,9.90
2023-02-01T12:49:26.411Z,13.40
2023-02-01T12:52:04.068Z,9.50
2023-02-01T12:54:43.286Z,14.60
2023-02-01T12:57:19.844Z,10.00
2023-02-01T12:59:59.022Z,16.50
2023-02-01T13:02:40.387Z,9.80
2023-02-01T13:05:21.015Z,13.20
2023-02-01T13:07:59.245Z,48.10
2023-02-01T13:10:36.433Z,11.40
2023-02-01T13:13:19.776Z,9.60
2023-02-01T13:15:58.626Z,7.00
2023-02-01T13:18:38.424Z,10.20
2023-02-01T13:21:15.235Z,7.50
2023-02-01T13:23:50.933Z,12.40
2023-02-01T13:26:23.317Z,13.30
2023-02-01T13:29:00.221Z,7.10
2023-02-01T13:31:55.373Z,8.90
2023-02-01T13:35:06.628Z,6.20
2023-02-01T13:38:05.018Z,9.20
2023-02-01T13:40:43.167Z,8.00
2023-02-01T13:43:21.779Z,7.80
2023-02-01T13:45:57.503Z,8.40
2023-02-01T13:48:36.389Z,10.10
2023-02-01T13:51:09.462Z,9.70
2023-02-01T13:53:50.203Z,6.40
2023-02-01T13:56:26.245Z,6.20
2023-02-01T13:58:58.661Z,11.40
2023-02-01T14:01:38.722Z,5.10
2023-02-01T14:04:50.404Z,10.90
2023-02-01T14:07:25.235Z,9.40
2023-02-01T14:09:57.561Z,8.40
2023-02-01T14:12:51.776Z,8.00
2023-02-01T14:15:28.705Z,8.40
2023-02-01T14:18:46.796Z,6.00
2023-02-01T14:24:03.026Z,11.10
2023-02-01T14:26:50.011Z,9.50
2023-02-01T14:29:33.610Z,7.90
2023-02-01T14:32:13.573Z,10.90
2023-02-01T14:34:57.515Z,10.70
2023-02-01T14:37:33.783Z,9.70
2023-02-01T14:40:17.333Z,9.50
2023-02-01T14:42:52.870Z,10.50
2023-02-01T14:45:53.179Z,14.80
2023-02-01T14:48:48.279Z,10.90
2023-02-01T14:51:22.056Z,7.40
2023-02-01T14:53:54.957Z,8.80
2023-02-01T14:56:30.647Z,12.50
2023-02-01T14:59:11.486Z,11.20
2023-02-01T15:01:52.396Z,6.50
2023-02-01T15:04:27.348Z,6.30
2023-02-01T15:07:08.173Z,6.50
2023-02-01T15:09:45.637Z,11.90
2023-02-01T15:12:28.139Z,9.20
2023-02-01T15:15:18.287Z,11.90
2023-02-01T15:17:59.906Z,11.90
2023-02-01T15:20:33.958Z,7.80
2023-02-01T15:23:08.964Z,7.90
2023-02-01T15:25:42.375Z,9.70
2023-02-01T15:28:18.276Z,8.80
2023-02-01T15:33:30.136Z,11.00
2023-02-01T15:36:14.121Z,9.50
2023-02-01T15:38:47.178Z,10.30
2023-02-01T15:41:21.649Z,11.90
2023-02-01T15:44:17.001Z,14.80
2023-02-01T15:46:52.833Z,10.00
2023-02-01T15:49:30.702Z,11.60
2023-02-01T15:52:05.518Z,11.40
2023-02-01T15:54:48.302Z,12.10
2023-02-01T15:57:31.509Z,34.90
2023-02-01T16:00:07.038Z,8.20
2023-02-01T16:02:46.169Z,10.90
2023-02-01T16:05:39.579Z,9.00
2023-02-01T16:08:15.465Z,9.60
2023-02-01T16:13:21.444Z,10.60
2023-02-01T16:15:53.857Z,9.80
2023-02-01T16:18:26.175Z,13.40
2023-02-01T16:20:58.507Z,12.40
2023-02-01T16:23:32.495Z,10.10
2023-02-01T16:26:05.293Z,14.60
2023-02-01T16:28:37.639Z,9.70
2023-02-01T16:31:20.495Z,11.10
2023-02-01T16:33:54.471Z,11.80
2023-02-01T16:36:28.248Z,11.10
2023-02-01T16:39:00.751Z,10.50
2023-02-01T16:41:33.049Z,10.00
2023-02-01T16:44:05.575Z,16.20
2023-02-01T16:46:44.836Z,19.10
2023-02-01T16:49:22.724Z,17.80
2023-02-01T16:51:58.937Z,18.60
2023-02-01T16:54:31.357Z,12.10
2023-02-01T16:57:03.670Z,14.00
2023-02-01T16:59:35.943Z,20.90
2023-02-01T17:02:08.454Z,13.80
2023-02-01T17:04:41.113Z,12.10
2023-02-01T17:07:16.689Z,9.90
2023-02-01T17:09:49.606Z,11.80
2023-02-01T17:12:26.660Z,12.90
2023-02-01T17:15:00.529Z,12.00
2023-02-01T17:17:39.547Z,14.90
2023-02-01T17:20:22.926Z,11.30
2023-02-01T17:22:55.747Z,9.00
2023-02-01T17:25:29.905Z,13.00
2023-02-01T17:28:02.411Z,11.80
2023-02-01T17:30:36.425Z,9.50
2023-02-01T17:33:22.541Z,6.60
2023-02-01T17:35:57.715Z,8.30
2023-02-01T17:38:30.242Z,12.40
2023-02-01T17:41:02.595Z,7.00
2023-02-01T17:43:35.583Z,8.60
2023-02-01T17:46:13.186Z,8.50
2023-02-01T17:48:45.981Z,8.50
2023-02-01T17:51:22.107Z,10.80
2023-02-01T17:53:54.823Z,11.80
2023-02-01T17:56:27.885Z,6.90
2023-02-01T17:59:00.271Z,8.20
2023-02-01T18:01:32.885Z,7.00
2023-02-01T18:04:05.463Z,10.30
2023-02-01T18:06:38.717Z,14.10
2023-02-01T18:09:11.028Z,9.50
2023-02-01T18:11:43.322Z,8.00
2023-02-01T18:14:16.087Z,10.10
2023-02-01T18:16:48.346Z,10.80
2023-02-01T18:19:20.671Z,7.90
2023-02-01T18:21:54.264Z,10.60
2023-02-01T18:24:28.288Z,12.30
2023-02-01T18:27:00.649Z,9.30
2023-02-01T18:29:33.155Z,10.10
2023-02-01T18:32:05.903Z,12.60
2023-02-01T18:34:38.196Z,12.30
2023-02-01T18:37:10.479Z,9.80
2023-02-01T18:39:42.775Z,11.40
2023-02-01T18:42:15.109Z,11.90
2023-02-01T18:44:47.366Z,11.80
2023-02-01T18:47:19.651Z,12.40
2023-02-01T18:49:51.962Z,14.20
2023-02-01T18:52:24.230Z,14.10
2023-02-01T18:55:00.056Z,13.00
2023-02-01T19:00:03.608Z,15.90
2023-02-01T19:02:36.046Z,14.50
2023-02-01T19:05:09.910Z,19.40
2023-02-01T19:07:43.257Z,18.90
2023-02-01T19:10:18.876Z,13.80
2023-02-01T19:12:51.797Z,12.40
2023-02-01T19:15:25.664Z,12.90
2023-02-01T19:17:58.496Z,14.70
2023-02-01T19:20:30.912Z,14.80
2023-02-01T19:23:03.361Z,14.20
2023-02-01T19:25:36.211Z,21.20
2023-02-01T19:28:08.659Z,20.20
2023-02-01T19:30:41.063Z,15.80
2023-02-01T19:33:13.539Z,23.80
2023-02-01T19:35:45.851Z,23.00
2023-02-01T19:38:18.155Z,16.60
2023-02-01T19:40:52.992Z,23.00
2023-02-01T19:43:25.489Z,17.40
2023-02-01T19:45:58.474Z,14.60
2023-02-01T19:48:31.678Z,16.40
2023-02-01T19:51:04.954Z,15.00
2023-02-01T19:53:37.376Z,17.90
2023-02-01T19:56:10.124Z,20.60
2023-02-01T19:58:42.370Z,17.90
2023-02-01T20:01:15.569Z,19.20
2023-02-01T20:03:48.005Z,18.10
2023-02-01T20:06:20.309Z,20.40
2023-02-01T20:08:52.732Z,23.60
2023-02-01T20:11:26.172Z,18.00
2023-02-01T20:14:00.157Z,18.60
2023-02-01T20:16:32.561Z,18.60
2023-02-01T20:19:06.194Z,16.60
2023-02-01T20:21:38.982Z,15.30
2023-02-01T20:24:13.712Z,17.00
2023-02-01T20:26:47.939Z,15.40
2023-02-01T20:29:21.048Z,14.10
2023-02-01T20:31:53.557Z,10.90
2023-02-01T20:34:25.821Z,14.10
2023-02-01T20:36:58.241Z,13.00
2023-02-01T20:39:30.809Z,10.10
2023-02-01T20:42:03.114Z,14.90
2023-02-01T20:44:35.447Z,13.30
2023-02-01T20:47:07.877Z,15.40
2023-02-01T20:49:41.287Z,14.70
2023-02-01T20:52:13.589Z,11.10
2023-02-01T20:54:45.901Z,11.60
2023-02-01T20:57:18.200Z,13.80
2023-02-01T20:59:51.292Z,14.20
2023-02-01T21:02:23.577Z,16.90
2023-02-01T21:04:55.838Z,11.60
2023-02-01T21:07:28.145Z,12.00
2023-02-01T21:10:00.543Z,14.00
2023-02-01T21:12:32.958Z,11.00
2023-02-01T21:15:05.929Z,12.90
2023-02-01T21:17:39.443Z,16.10
2023-02-01T21:20:14.126Z,18.50
2023-02-01T21:22:46.441Z,14.20
2023-02-01T21:25:18.847Z,16.80
2023-02-01T21:27:51.701Z,16.00
2023-02-01T21:30:24.058Z,13.80
2023-02-01T21:32:56.694Z,13.60
2023-02-01T21:35:29.329Z,17.70
2023-02-01T21:38:01.744Z,16.00
2023-02-01T21:40:34.098Z,18.20
2023-02-01T21:43:06.474Z,16.90
2023-02-01T21:45:41.558Z,15.60
2023-02-01T21:48:16.209Z,13.50
2023-02-01T21:50:49.479Z,14.90
2023-02-01T21:53:21.765Z,12.20
2023-02-01T21:55:54.045Z,14.30
2023-02-01T21:58:26.340Z,13.00
2023-02-01T22:00:58.694Z,17.70
2023-02-01T22:03:31.004Z,13.50
2023-02-01T22:06:03.325Z,14.60
2023-02-01T22:08:37.606Z,14.00
2023-02-01T22:11:09.861Z,14.70
2023-02-01T22:13:42.269Z,13.50
2023-02-01T22:16:18.170Z,13.70
2023-02-01T22:18:51.533Z,16.30
2023-02-01T22:21:26.031Z,14.30
2023-02-01T22:24:00.158Z,17.60
2023-02-01T22:26:32.402Z,10.50
2023-02-01T22:29:05.054Z,11.80
2023-02-01T22:31:37.463Z,14.50
2023-02-01T22:34:10.767Z,11.20
2023-02-01T22:36:43.117Z,14.30
2023-02-01T22:39:15.978Z,13.20
2023-02-01T22:41:48.376Z,12.90
2023-02-01T22:44:20.637Z,11.90
2023-02-01T22:46:53.227Z,12.80
2023-02-01T22:49:25.670Z,11.20
2023-02-01T22:51:59.406Z,11.50
2023-02-01T22:54:31.708Z,10.00
2023-02-01T22:57:03.905Z,13.60
2023-02-01T22:59:36.311Z,16.60
2023-02-01T23:02:08.512Z,19.80
2023-02-01T23:04:40.767Z,12.00
2023-02-01T23:07:13.029Z,13.00
2023-02-01T23:09:45.340Z,9.30
2023-02-01T23:12:17.574Z,10.10
2023-02-01T23:15:03.696Z,12.00
2023-02-01T23:17:36.710Z,18.70
2023-02-01T23:20:14.989Z,15.80
2023-02-01T23:22:48.498Z,12.30
2023-02-01T23:25:21.805Z,13.90
2023-02-01T23:27:54.364Z,11.30
2023-02-01T23:30:26.765Z,10.60
2023-02-01T23:32:59.098Z,9.80
2023-02-01T23:35:31.349Z,16.10
2023-02-01T23:38:03.524Z,15.00
2023-02-01T23:40:35.915Z,17.50
2023-02-01T23:43:25.584Z,12.00
2023-02-01T23:46:01.830Z,13.80
2023-02-01T23:48:34.266Z,13.90
2023-02-01T23:51:07.110Z,14.00
2023-02-01T23:53:39.454Z,11.70
2023-02-01T23:56:19.870Z,14.40
2023-02-01T23:58:52.996Z,17.00
